Time;durP1;ratioP1;P1;durP2;ratioP2;P2;SDS_P1;SDS_P2;PMS_P1;PMS_P2;Temp;Humidity;BMP_temperature;BMP_pressure;BME280_temperature;BME280_humidity;BME280_pressure;Samples;Min_cycle;Max_cycle;Signal;HPM_P1;HPM_P2
2020/12/24 00:00:11;;;;;;;37.03;19.08;;;;;;;5.41;75.63;99348.34;5068915;28;20039;-76
2020/12/24 00:02:37;;;;;;;34.97;17.63;;;;;;;5.43;75.57;99354.19;5070373;28;20555;-77
2020/12/24 00:05:03;;;;;;;40.13;19.45;;;;;;;5.43;75.75;99355.03;5071169;28;20507;-81
2020/12/24 00:07:28;;;;;;;42.35;18.17;;;;;;;5.45;75.45;99357.44;5070821;28;20032;-84
2020/12/24 00:09:53;;;;;;;43.20;20.17;;;;;;;5.43;75.49;99354.19;5069771;28;20419;-81
2020/12/24 00:12:19;;;;;;;35.90;17.92;;;;;;;5.48;75.31;99351.69;5070366;28;20075;-80
2020/12/24 00:14:44;;;;;;;37.22;20.23;;;;;;;5.47;75.45;99344.75;5068753;28;20036;-83
2020/12/24 00:17:10;;;;;;;40.67;20.50;;;;;;;5.52;75.11;99354.66;5070516;28;20403;-79
2020/12/24 00:19:35;;;;;;;41.10;19.80;;;;;;;5.50;75.22;99346.13;5069848;28;20468;-77
2020/12/24 00:22:01;;;;;;;38.95;19.42;;;;;;;5.47;75.16;99347.41;5065369;28;20036;-80
2020/12/24 00:24:26;;;;;;;45.03;20.75;;;;;;;5.41;74.58;99349.13;5066117;28;20037;-76
2020/12/24 00:26:52;;;;;;;50.90;23.13;;;;;;;5.43;74.43;99354.19;5070265;28;20483;-76
2020/12/24 00:29:17;;;;;;;45.97;23.83;;;;;;;5.45;74.47;99360.09;5069080;28;20090;-80
2020/12/24 00:31:43;;;;;;;46.47;23.02;;;;;;;5.41;74.39;99353.66;5070220;28;20029;-77
2020/12/24 00:34:08;;;;;;;52.58;24.77;;;;;;;5.40;74.61;99350.16;5066765;28;20492;-76
2020/12/24 00:36:34;;;;;;;51.72;24.17;;;;;;;5.37;74.38;99355.97;5066983;28;20407;-74
2020/12/24 00:39:00;;;;;;;45.35;24.98;;;;;;;5.35;74.26;99351.94;5066641;28;20032;-74
2020/12/24 00:41:25;;;;;;;59.55;26.27;;;;;;;5.35;74.69;99362.53;5064458;28;20127;-73
2020/12/24 00:43:51;;;;;;;56.47;25.38;;;;;;;5.34;74.59;99360.94;5065574;28;20143;-73
2020/12/24 00:46:17;;;;;;;57.17;30.55;;;;;;;5.33;74.89;99361.97;5064795;28;20040;-74
2020/12/24 00:48:43;;;;;;;46.15;26.13;;;;;;;5.34;74.37;99359.06;5065519;28;20037;-74
2020/12/24 00:51:08;;;;;;;50.03;25.80;;;;;;;5.32;74.05;99369.09;5064401;28;20078;-74
2020/12/24 00:53:33;;;;;;;53.80;26.20;;;;;;;5.31;74.29;99366.69;5066465;28;20105;-73
2020/12/24 00:55:59;;;;;;;48.90;25.40;;;;;;;5.28;74.33;99366.13;5071086;28;20036;-72
2020/12/24 00:58:24;;;;;;;53.03;27.60;;;;;;;5.26;74.02;99367.38;5060980;28;20116;-73
2020/12/24 01:00:49;;;;;;;62.00;30.08;;;;;;;5.26;73.84;99362.91;5059986;28;20028;-74
2020/12/24 01:03:15;;;;;;;51.50;26.98;;;;;;;5.23;74.03;99362.56;5070171;28;20032;-74
2020/12/24 01:05:40;;;;;;;55.00;27.17;;;;;;;5.24;74.52;99375.56;5070434;28;20024;-83
2020/12/24 01:08:06;;;;;;;55.75;26.10;;;;;;;5.24;74.77;99361.50;5070468;28;20036;-76
2020/12/24 01:10:31;;;;;;;40.13;20.48;;;;;;;5.22;74.59;99368.88;5069699;28;20059;-75
2020/12/24 01:12:57;;;;;;;43.53;21.95;;;;;;;5.22;74.53;99374.97;5070615;28;20024;-78
2020/12/24 01:15:22;;;;;;;45.10;23.35;;;;;;;5.17;74.55;99364.28;5070005;28;20459;-80
2020/12/24 01:17:47;;;;;;;46.38;22.90;;;;;;;5.22;74.37;99369.69;5069370;28;20039;-78
2020/12/24 01:20:13;;;;;;;50.13;23.92;;;;;;;5.20;74.57;99369.13;5070130;28;20040;-78
2020/12/24 01:22:39;;;;;;;44.72;23.98;;;;;;;5.20;74.15;99369.13;5069436;28;20471;-75
2020/12/24 01:25:04;;;;;;;48.00;23.23;;;;;;;5.21;74.42;99364.63;5069342;28;20032;-78
2020/12/24 01:27:30;;;;;;;47.30;23.35;;;;;;;5.20;74.04;99363.81;5069565;28;20533;-75
2020/12/24 01:29:55;;;;;;;54.50;26.48;;;;;;;5.17;74.15;99361.63;5069672;28;20036;-75
2020/12/24 01:32:21;;;;;;;51.47;27.90;;;;;;;5.15;74.07;99350.47;5070010;28;20063;-75
2020/12/24 01:34:46;;;;;;;57.03;25.85;;;;;;;5.14;73.83;99351.50;5069989;28;20159;-75
2020/12/24 01:37:11;;;;;;;58.42;29.38;;;;;;;5.11;73.82;99349.31;5069851;28;20406;-76
2020/12/24 01:39:37;;;;;;;60.63;29.60;;;;;;;5.05;73.83;99339.63;5065820;28;20040;-75
2020/12/24 01:42:03;;;;;;;55.58;29.80;;;;;;;5.06;73.82;99341.25;5069142;28;20028;-75
2020/12/24 01:44:29;;;;;;;60.85;31.77;;;;;;;5.03;74.05;99342.50;5069808;28;20541;-75
2020/12/24 01:46:54;;;;;;;63.05;31.27;;;;;;;5.01;73.93;99341.94;5070067;28;20028;-75
2020/12/24 01:49:20;;;;;;;64.82;32.05;;;;;;;4.98;74.15;99345.06;5069829;28;20025;-76
2020/12/24 01:51:55;;;;;;;50.35;24.83;;;;;;;5.01;74.20;99344.59;5070542;28;20040;-76
2020/12/24 01:54:22;;;;;;;50.33;24.77;;;;;;;5.01;74.17;99343.78;5069831;28;20063;-77
2020/12/24 01:56:48;;;;;;;62.42;29.00;;;;;;;4.97;74.67;99344.25;5069774;28;20063;-76
2020/12/24 01:59:17;;;;;;;56.25;27.60;;;;;;;5.01;74.39;99343.78;5069502;28;20056;-76
2020/12/24 02:01:46;;;;;;;;;;;;;;;4.99;74.17;99338.69;5069669;28;20414;-75
2020/12/24 02:04:12;;;;;;;48.20;24.25;;;;;;;4.96;74.05;99344.47;5069868;28;19909;-75
2020/12/24 02:06:40;;;;;;;56.88;28.23;;;;;;;4.94;73.77;99341.25;5069775;28;20426;-76
2020/12/24 02:09:05;;;;;;;55.80;26.70;;;;;;;4.89;73.67;99330.53;5069072;28;20037;-75
2020/12/24 02:11:31;;;;;;;52.80;26.95;;;;;;;4.86;74.16;99345.06;5068945;28;20055;-75
2020/12/24 02:13:56;;;;;;;52.30;27.30;;;;;;;4.85;73.65;99338.13;5070398;28;20040;-75
2020/12/24 02:16:22;;;;;;;51.65;25.10;;;;;;;4.78;73.92;99326.84;5069634;28;20499;-74
2020/12/24 02:18:47;;;;;;;52.05;27.95;;;;;;;4.82;74.10;99325.34;5069853;28;20037;-79
2020/12/24 02:21:13;;;;;;;50.05;26.33;;;;;;;4.76;73.84;99323.63;5071030;28;20040;-77
2020/12/24 02:23:38;;;;;;;51.30;28.30;;;;;;;4.72;73.99;99312.66;5069131;28;20476;-77
2020/12/24 02:26:03;;;;;;;55.15;25.48;;;;;;;4.73;73.52;99319.59;5063240;28;20511;-79
2020/12/24 02:28:29;;;;;;;44.67;25.00;;;;;;;4.73;73.20;99319.59;5049306;28;20466;-81
2020/12/24 02:30:54;;;;;;;53.10;25.45;;;;;;;4.69;73.42;99317.63;5049616;28;20098;-84
2020/12/24 02:33:20;;;;;;;51.38;23.00;;;;;;;4.65;73.17;99318.09;5049411;28;20037;-83
2020/12/24 02:35:45;;;;;;;42.97;21.83;;;;;;;4.62;73.62;99307.16;5050302;28;20097;-77
2020/12/24 02:38:11;;;;;;;33.40;19.17;;;;;;;4.58;73.01;99300.72;5049675;28;20409;-76
2020/12/24 02:40:36;;;;;;;26.05;14.07;;;;;;;4.54;73.28;99294.25;5068473;28;20099;-76
2020/12/24 02:43:01;;;;;;;28.20;13.88;;;;;;;4.51;73.43;99295.50;5069420;28;20111;-76
2020/12/24 02:45:27;;;;;;;26.92;14.07;;;;;;;4.49;73.55;99302.88;5069232;28;20041;-76
2020/12/24 02:47:52;;;;;;;27.42;15.65;;;;;;;4.46;73.85;99295.41;5069085;28;20068;-76
2020/12/24 02:50:18;;;;;;;25.60;13.73;;;;;;;4.45;73.54;99294.56;5070951;28;20111;-74
2020/12/24 02:52:43;;;;;;;25.33;13.10;;;;;;;4.45;73.91;99302.53;5068770;28;20490;-75
2020/12/24 02:55:09;;;;;;;24.92;12.75;;;;;;;4.46;74.36;99298.84;5068780;28;20028;-75
2020/12/24 02:57:34;;;;;;;22.60;12.98;;;;;;;4.42;74.47;99289.75;5068928;28;20170;-77
2020/12/24 03:00:08;;;;;;;22.75;11.63;;;;;;;4.42;74.60;99289.75;5069667;28;20029;-78
2020/12/24 03:02:33;;;;;;;22.20;11.35;;;;;;;4.36;74.79;99285.38;5063368;28;20025;-80
2020/12/24 03:04:59;;;;;;;19.60;11.15;;;;;;;4.35;75.16;99282.97;5048802;28;20029;-83
2020/12/24 03:07:24;;;;;;;22.30;11.15;;;;;;;4.39;75.64;99297.34;5059776;28;20081;-75
2020/12/24 03:09:49;;;;;;;22.00;11.10;;;;;;;4.42;75.53;99302.16;5068923;28;20043;-75
2020/12/24 03:12:15;;;;;;;21.77;12.15;;;;;;;4.41;75.42;99296.09;5069158;28;20028;-76
2020/12/24 03:14:40;;;;;;;17.45;8.60;;;;;;;4.45;75.39;99301.72;5068901;28;20029;-76
2020/12/24 03:17:05;;;;;;;23.50;10.68;;;;;;;4.48;75.73;99301.28;5057630;28;20025;-76
2020/12/24 03:19:31;;;;;;;20.90;11.68;;;;;;;4.53;75.96;99296.09;5072858;28;20446;-76
2020/12/24 03:21:58;;;;;;;18.13;11.15;;;;;;;4.54;75.82;99287.13;5068637;28;20036;-77
2020/12/24 03:24:24;;;;;;;14.07;9.23;;;;;;;4.58;75.86;99287.47;5071574;28;20039;-77
2020/12/24 03:26:49;;;;;;;17.05;7.70;;;;;;;4.59;76.01;99297.00;5071754;28;20403;-76
2020/12/24 03:29:14;;;;;;;11.88;6.80;;;;;;;4.60;76.32;99301.28;5072346;28;20029;-76
2020/12/24 03:31:40;;;;;;;12.45;7.45;;;;;;;4.62;76.26;99294.69;5072327;28;20125;-76
2020/12/24 03:34:05;;;;;;;14.70;6.93;;;;;;;4.61;76.24;99289.63;5072182;28;20056;-76
2020/12/24 03:36:30;;;;;;;13.70;7.70;;;;;;;4.64;76.56;99292.63;5071874;28;20121;-76
2020/12/24 03:38:56;;;;;;;13.95;6.28;;;;;;;4.70;76.65;99298.03;5072157;28;20040;-77
2020/12/24 03:41:21;;;;;;;10.98;6.30;;;;;;;4.69;76.98;99291.13;5072141;28;20033;-76
2020/12/24 03:43:47;;;;;;;11.50;6.45;;;;;;;4.65;77.37;99285.47;5071487;28;20060;-81
2020/12/24 03:46:12;;;;;;;9.07;5.93;;;;;;;4.67;77.37;99286.06;5072446;28;20036;-81
2020/12/24 03:48:37;;;;;;;11.93;6.97;;;;;;;4.72;77.08;99295.97;5071659;28;20380;-80
2020/12/24 03:51:03;;;;;;;14.23;8.50;;;;;;;4.75;77.20;99292.88;5072189;28;20032;-76
2020/12/24 03:53:28;;;;;;;20.75;10.05;;;;;;;4.76;77.09;99292.63;5071749;28;20036;-80
2020/12/24 03:55:54;;;;;;;21.88;9.85;;;;;;;4.79;77.13;99291.38;5071705;28;20483;-76
2020/12/24 03:58:19;;;;;;;19.65;10.25;;;;;;;4.79;76.97;99289.50;5071382;28;20024;-77
2020/12/24 04:00:44;;;;;;;21.98;11.55;;;;;;;4.85;76.17;99289.66;5071203;28;20514;-76
2020/12/24 04:03:11;;;;;;;44.33;21.23;;;;;;;4.83;75.19;99292.50;5071996;28;20127;-77
2020/12/24 04:05:36;;;;;;;51.95;22.92;;;;;;;4.77;74.74;99285.47;5071312;28;20039;-78
2020/12/24 04:08:02;;;;;;;49.47;25.27;;;;;;;4.72;74.77;99295.97;5071113;28;20017;-77
2020/12/24 04:10:27;;;;;;;56.85;24.35;;;;;;;4.63;74.57;99301.63;5071737;28;20024;-77
2020/12/24 04:12:53;;;;;;;35.13;17.17;;;;;;;4.53;75.13;99292.63;5071276;28;20444;-73
2020/12/24 04:15:18;;;;;;;39.95;19.88;;;;;;;4.50;75.83;99293.91;5072853;28;20086;-73
2020/12/24 04:17:44;;;;;;;41.25;20.90;;;;;;;4.48;76.14;99299.44;5071157;28;20035;-77
2020/12/24 04:20:09;;;;;;;58.70;28.75;;;;;;;4.41;75.32;99290.00;5070751;28;20028;-75
2020/12/24 04:22:34;;;;;;;53.40;27.08;;;;;;;4.34;75.41;99298.03;5071221;28;20024;-75
2020/12/24 04:25:01;;;;;;;55.85;27.42;;;;;;;4.32;75.69;99310.69;5071264;28;20483;-74
2020/12/24 04:27:26;;;;;;;45.22;26.35;;;;;;;4.32;75.57;99300.09;5072539;28;20528;-77
2020/12/24 04:29:52;;;;;;;54.95;27.05;;;;;;;4.31;75.55;99295.84;5070125;28;20078;-77
2020/12/24 04:32:17;;;;;;;53.47;24.23;;;;;;;4.27;75.64;99297.31;5070900;28;20064;-76
2020/12/24 04:34:43;;;;;;;49.88;25.38;;;;;;;4.24;75.60;99295.94;5070746;28;20048;-77
2020/12/24 04:37:08;;;;;;;51.30;24.25;;;;;;;4.21;75.78;99301.72;5070733;28;20116;-77
2020/12/24 04:39:33;;;;;;;40.00;19.73;;;;;;;4.13;76.53;99304.69;5070743;28;20107;-77
2020/12/24 04:41:59;;;;;;;33.25;16.98;;;;;;;4.10;76.70;99292.72;5054129;28;20033;-79
2020/12/24 04:44:28;;;;;;;39.20;17.67;;;;;;;4.06;77.33;99291.53;5070361;28;20035;-81
2020/12/24 04:46:55;;;;;;;40.45;18.33;;;;;;;4.07;77.74;99295.00;5070127;28;20571;-78
2020/12/24 04:49:23;;;;;;;41.90;21.38;;;;;;;4.05;77.09;99289.91;5071053;28;20025;-76
2020/12/24 04:51:49;;;;;;;68.28;29.27;;;;;;;4.02;76.92;99300.97;5070535;28;20547;-75
2020/12/24 04:54:16;;;;;;;46.53;23.00;;;;;;;4.04;76.72;99308.66;5070581;28;20484;-74
2020/12/24 04:56:41;;;;;;;48.63;22.45;;;;;;;4.00;76.90;99309.13;5071841;28;20114;-74
2020/12/24 04:59:07;;;;;;;43.83;20.40;;;;;;;3.91;76.58;99305.19;5070882;28;20743;-73
2020/12/24 05:01:33;;;;;;;39.97;22.17;;;;;;;3.96;76.42;99323.03;5071530;28;20029;-74
2020/12/24 05:03:58;;;;;;;35.70;19.63;;;;;;;3.92;76.74;99311.28;5071807;28;20545;-75
2020/12/24 05:06:24;;;;;;;33.88;18.75;;;;;;;3.89;77.47;99314.38;5070558;28;20029;-79
2020/12/24 05:08:59;;;;;;;39.13;20.15;;;;;;;3.88;77.21;99310.91;5070213;28;20036;-82
2020/12/24 05:11:26;;;;;;;29.70;16.10;;;;;;;3.82;77.67;99317.09;5070394;28;20123;-81
2020/12/24 05:13:52;;;;;;;39.53;19.83;;;;;;;3.86;77.32;99318.28;5070309;28;20028;-78
2020/12/24 05:16:17;;;;;;;51.60;21.90;;;;;;;3.83;77.56;99305.50;5070055;28;20029;-78
2020/12/24 05:18:43;;;;;;;45.40;21.83;;;;;;;3.87;77.19;99311.97;5070133;28;20102;-77
2020/12/24 05:21:09;;;;;;;33.00;17.00;;;;;;;3.86;77.28;99299.78;5070005;28;20119;-77
2020/12/24 05:23:34;;;;;;;34.10;17.23;;;;;;;3.88;77.38;99299.53;5069955;28;20078;-78
2020/12/24 05:26:00;;;;;;;30.95;15.98;;;;;;;3.90;77.09;99305.41;5066199;28;20441;-77
2020/12/24 05:28:30;;;;;;;28.50;14.43;;;;;;;3.84;77.19;99284.13;5050398;28;20037;-79
2020/12/24 05:30:55;;;;;;;23.50;14.20;;;;;;;3.91;77.05;99286.66;5050164;28;20037;-77
2020/12/24 05:33:39;;;;;;;31.80;16.23;;;;;;;3.95;77.10;99294.97;5068277;28;20556;-76
2020/12/24 05:36:13;;;;;;;31.67;15.00;;;;;;;3.93;76.51;99291.72;5070218;28;20410;-78
2020/12/24 05:38:39;;;;;;;39.10;18.83;;;;;;;3.86;77.04;99289.19;5069464;28;20040;-77
2020/12/24 05:41:35;;;;;;;40.25;19.63;;;;;;;3.85;76.86;99290.22;5069921;28;20404;-81
2020/12/24 05:44:09;;;;;;;50.20;27.40;;;;;;;3.84;77.03;99291.25;5070884;28;20028;-78
2020/12/24 05:46:46;;;;;;;54.80;28.60;;;;;;;3.77;77.23;99288.72;5070025;28;20048;-79
2020/12/24 05:49:18;;;;;;;51.08;25.48;;;;;;;3.74;76.93;99297.09;5069985;28;20064;-78
2020/12/24 05:51:52;;;;;;;48.13;27.65;;;;;;;3.71;77.12;99294.91;5064777;28;20035;-77
2020/12/24 05:54:18;;;;;;;54.33;26.23;;;;;;;3.68;77.41;99298.78;5049867;28;20068;-76
2020/12/24 05:56:44;;;;;;;46.65;24.45;;;;;;;3.67;77.43;99296.34;5059661;28;20032;-82
2020/12/24 05:59:18;;;;;;;52.60;25.88;;;;;;;3.68;77.35;99296.13;5069886;28;20093;-82
2020/12/24 06:02:06;;;;;;;47.00;24.10;;;;;;;3.69;77.33;99300.38;5069296;28;20029;-82
2020/12/24 06:04:51;;;;;;;41.45;22.30;;;;;;;3.70;77.42;99298.56;5068927;28;20539;-81
2020/12/24 06:07:20;;;;;;;53.85;24.20;;;;;;;3.79;77.62;99304.34;5069166;28;20029;-80
2020/12/24 06:09:46;;;;;;;;;;;;;;;3.85;77.14;99298.94;5070058;28;20102;-79
2020/12/24 06:12:18;;;;;;;46.25;21.63;;;;;;;3.74;77.06;99267.19;5068859;28;19935;-78
2020/12/24 06:14:47;;;;;;;46.80;24.20;;;;;;;3.99;77.13;99291.66;5069140;28;20028;-78
2020/12/24 06:17:20;;;;;;;49.88;26.33;;;;;;;4.07;77.14;99281.78;5069186;28;20024;-79
2020/12/24 06:19:45;;;;;;;46.53;25.77;;;;;;;4.20;77.45;99292.16;5069288;28;20028;-81
2020/12/24 06:22:11;;;;;;;62.67;29.50;;;;;;;4.26;77.14;99280.66;5068395;28;20487;-76
2020/12/24 06:24:43;;;;;;;58.50;33.75;;;;;;;4.33;76.75;99288.47;5068264;28;20086;-77
2020/12/24 06:27:21;;;;;;;59.85;31.95;;;;;;;4.41;75.85;99284.69;5069038;28;20052;-77
2020/12/24 06:29:50;;;;;;;62.33;31.52;;;;;;;4.48;75.68;99291.47;5069343;28;20039;-75
2020/12/24 06:32:18;;;;;;;54.03;29.75;;;;;;;4.55;75.66;99290.56;5068721;28;20024;-77
2020/12/24 06:34:44;;;;;;;57.25;29.55;;;;;;;4.57;75.52;99291.94;5068534;28;20090;-78
2020/12/24 06:37:18;;;;;;;58.55;28.15;;;;;;;4.65;75.41;99291.59;5068960;28;20028;-76
2020/12/24 06:39:50;;;;;;;53.20;29.35;;;;;;;4.66;75.12;99289.75;5068466;28;21599;-76
2020/12/24 06:42:40;;;;;;;56.78;33.17;;;;;;;4.78;75.70;99305.66;5069041;28;20029;-77
2020/12/24 06:45:06;;;;;;;68.63;34.97;;;;;;;4.84;74.63;99306.56;5068347;28;20017;-79
2020/12/24 06:47:33;;;;;;;49.53;26.00;;;;;;;4.83;74.72;99311.06;5069150;28;20033;-77
2020/12/24 06:49:58;;;;;;;49.88;26.15;;;;;;;4.91;74.07;99308.06;5068807;28;20533;-78
2020/12/24 06:52:29;;;;;;;56.42;29.55;;;;;;;4.94;74.24;99298.84;5068658;28;20085;-79
2020/12/24 06:55:23;;;;;;;60.72;30.13;;;;;;;5.00;74.03;99303.22;5072004;28;20028;-78
2020/12/24 06:57:49;;;;;;;53.67;27.88;;;;;;;4.99;73.74;99298.94;5049864;28;20491;-79
2020/12/24 07:00:17;;;;;;;66.20;34.58;;;;;;;4.99;73.32;99287.53;5072893;28;20031;-78
2020/12/24 07:02:43;;;;;;;93.28;42.10;;;;;;;5.07;73.41;99301.25;5072651;28;20062;-79
2020/12/24 07:05:40;;;;;;;70.43;36.33;;;;;;;5.17;73.66;99302.50;5072581;28;20040;-78
2020/12/24 07:08:10;;;;;;;80.43;43.08;;;;;;;5.18;73.77;99299.59;5068610;28;20530;-79
2020/12/24 07:11:02;;;;;;;73.90;35.78;;;;;;;5.28;72.91;99296.34;5073043;28;20121;-79
2020/12/24 07:13:38;;;;;;;50.75;23.55;;;;;;;5.36;73.44;99297.81;5079374;28;20041;-81
2020/12/24 07:16:09;;;;;;;54.60;28.35;;;;;;;5.43;73.38;99298.50;5067852;28;20034;-80
2020/12/24 07:18:36;;;;;;;58.90;30.70;;;;;;;5.48;72.36;99285.34;5072686;28;20131;-79
2020/12/24 07:21:04;;;;;;;47.42;25.70;;;;;;;5.52;71.92;99278.53;5071800;28;20410;-79
2020/12/24 07:23:30;;;;;;;55.33;28.10;;;;;;;5.56;72.19;99270.91;5072444;28;20028;-79
2020/12/24 07:26:01;;;;;;;59.40;31.23;;;;;;;5.59;72.95;99273.88;5072187;28;20040;-79
2020/12/24 07:28:35;;;;;;;57.72;29.67;;;;;;;5.70;72.50;99276.72;5059022;28;20529;-75
2020/12/24 07:31:02;;;;;;;53.08;27.98;;;;;;;5.84;73.23;99282.53;5070524;28;20455;-76
2020/12/24 07:33:28;;;;;;;49.38;27.63;;;;;;;5.95;71.76;99294.94;5070546;28;20040;-75
2020/12/24 07:35:54;;;;;;;48.85;28.77;;;;;;;6.04;72.43;99293.56;5071514;28;20039;-75
2020/12/24 07:38:21;;;;;;;53.83;28.92;;;;;;;6.08;71.87;99278.75;5070499;28;20028;-75
2020/12/24 07:40:47;;;;;;;45.50;27.02;;;;;;;6.23;71.25;99290.66;5071935;28;20038;-76
2020/12/24 07:43:13;;;;;;;56.95;29.90;;;;;;;6.25;71.54;99284.06;5070653;28;20028;-75
2020/12/24 07:45:39;;;;;;;55.83;29.02;;;;;;;6.34;70.95;99294.28;5070565;28;20032;-76
2020/12/24 07:48:19;;;;;;;44.78;27.20;;;;;;;6.39;71.41;99287.19;5070856;28;20028;-84
2020/12/24 07:50:46;;;;;;;49.50;27.05;;;;;;;6.50;71.06;99288.16;5073160;28;20032;-84
2020/12/24 07:53:20;;;;;;;47.45;27.17;;;;;;;6.60;72.10;99289.34;5072200;28;20502;-84
2020/12/24 07:55:46;;;;;;;45.80;25.35;;;;;;;6.70;70.62;99286.84;5071510;28;20123;-77
2020/12/24 07:58:15;;;;;;;44.15;23.80;;;;;;;6.79;70.22;99293.34;5070892;28;20462;-81
2020/12/24 08:00:52;;;;;;;34.85;19.33;;;;;;;6.78;70.26;99281.09;5070547;28;20044;-80
2020/12/24 08:03:18;;;;;;;38.03;20.48;;;;;;;6.79;70.48;99285.38;5072023;28;20056;-76
2020/12/24 08:05:45;;;;;;;30.38;16.55;;;;;;;6.79;70.29;99285.38;5071460;28;20021;-75
2020/12/24 08:08:10;;;;;;;34.53;17.00;;;;;;;6.83;70.83;99289.16;5071793;28;20028;-74
2020/12/24 08:10:40;;;;;;;36.30;19.67;;;;;;;6.87;71.17;99294.78;5070808;28;20380;-79
2020/12/24 08:13:08;;;;;;;37.25;18.55;;;;;;;6.90;70.69;99289.00;5070719;28;20032;-78
2020/12/24 08:15:38;;;;;;;34.42;18.88;;;;;;;7.00;70.58;99293.63;5071218;28;20036;-78
2020/12/24 08:18:07;;;;;;;25.73;14.60;;;;;;;7.05;70.64;99291.03;5067446;28;20496;-74
2020/12/24 08:20:45;;;;;;;27.92;14.52;;;;;;;7.12;70.94;99280.22;5068632;28;20033;-76
2020/12/24 08:23:23;;;;;;;;;;;;;;;7.20;71.21;99285.91;5063629;28;20028;-76
2020/12/24 08:25:55;;;;;;;43.95;22.17;;;;;;;7.29;71.35;99277.50;5071264;28;19908;-77
2020/12/24 08:28:21;;;;;;;38.63;21.75;;;;;;;7.37;70.82;99285.84;5071384;28;20396;-77
2020/12/24 08:30:48;;;;;;;37.53;19.67;;;;;;;7.44;70.58;99275.00;5071234;28;20123;-81
2020/12/24 08:33:14;;;;;;;33.00;17.00;;;;;;;7.47;70.28;99268.38;5070437;28;20048;-84
2020/12/24 08:35:40;;;;;;;37.80;19.88;;;;;;;7.54;70.48;99266.31;5070847;28;20029;-79
2020/12/24 08:38:10;;;;;;;29.67;17.83;;;;;;;7.58;70.33;99263.97;5071849;28;20119;-92
2020/12/24 08:40:35;;;;;;;39.50;22.15;;;;;;;7.60;69.94;99265.31;5072268;28;20100;-86
2020/12/24 08:43:06;;;;;;;41.22;23.38;;;;;;;7.63;70.67;99259.50;5072303;28;20100;-85
2020/12/24 08:45:31;;;;;;;41.22;22.23;;;;;;;7.69;70.49;99261.16;5071603;28;20024;-87
2020/12/24 08:47:57;;;;;;;51.05;28.63;;;;;;;7.74;70.94;99251.59;5071120;28;20412;-89
2020/12/24 08:50:33;;;;;;;54.85;28.35;;;;;;;7.82;70.56;99256.47;5071114;28;20035;-88
2020/12/24 08:52:59;;;;;;;47.55;28.10;;;;;;;7.85;70.64;99248.00;5070567;28;20028;-76
2020/12/24 08:55:28;;;;;;;56.35;31.35;;;;;;;7.90;70.21;99244.56;5081356;28;20012;-81
2020/12/24 08:57:57;;;;;;;59.05;31.98;;;;;;;7.96;70.44;99246.25;5070030;28;20081;-86
2020/12/24 09:00:24;;;;;;;46.03;28.42;;;;;;;8.07;70.56;99249.75;5053818;28;20032;-80
2020/12/24 09:02:50;;;;;;;48.22;28.77;;;;;;;8.14;69.74;99255.69;5069738;28;20036;-75
2020/12/24 09:05:25;;;;;;;48.05;27.13;;;;;;;8.20;69.96;99243.22;5070444;28;20035;-75
2020/12/24 09:07:51;;;;;;;41.20;24.65;;;;;;;8.29;69.86;99233.69;5070026;28;20506;-76
2020/12/24 09:10:24;;;;;;;42.83;24.55;;;;;;;8.40;69.58;99234.56;5070534;28;20032;-90
2020/12/24 09:13:00;;;;;;;48.60;25.70;;;;;;;8.45;69.42;99235.41;5070287;28;20407;-79
2020/12/24 09:15:27;;;;;;;39.53;22.52;;;;;;;8.56;69.43;99236.28;5070628;28;20037;-76
2020/12/24 09:17:55;;;;;;;31.35;17.02;;;;;;;8.66;68.71;99232.88;5069097;28;20046;-84
2020/12/24 09:20:29;;;;;;;27.88;17.02;;;;;;;8.78;68.35;99230.03;5070124;28;20557;-74
2020/12/24 09:22:57;;;;;;;33.53;18.30;;;;;;;8.85;68.75;99217.25;5071511;28;20028;-74
2020/12/24 09:25:36;;;;;;;34.27;18.23;;;;;;;8.96;68.29;99207.44;5071780;28;20497;-76
2020/12/24 09:28:04;;;;;;;29.55;16.83;;;;;;;9.06;67.88;99212.78;5069690;28;20024;-74
2020/12/24 09:30:30;;;;;;;32.05;17.65;;;;;;;9.15;67.85;99212.28;5070396;28;20036;-78
2020/12/24 09:32:58;;;;;;;30.13;17.13;;;;;;;9.24;68.40;99210.69;5063844;28;20063;-82
2020/12/24 09:35:25;;;;;;;25.52;16.27;;;;;;;9.33;67.81;99213.69;5070063;28;20036;-78
2020/12/24 09:37:51;;;;;;;31.45;17.45;;;;;;;9.40;67.89;99196.34;5069736;28;20036;-78
2020/12/24 09:40:17;;;;;;;41.22;20.00;;;;;;;9.50;67.61;99203.56;5070139;28;20047;-78
2020/12/24 09:42:43;;;;;;;34.03;18.75;;;;;;;9.65;67.59;99204.66;5069304;28;20021;-79
2020/12/24 09:45:08;;;;;;;31.13;15.93;;;;;;;9.72;67.38;99205.19;5069221;28;20479;-78
2020/12/24 09:47:34;;;;;;;36.88;20.88;;;;;;;9.83;66.94;99206.00;5069634;28;20119;-79
2020/12/24 09:49:59;;;;;;;35.45;20.10;;;;;;;9.92;66.80;99209.72;5069320;28;20134;-77
2020/12/24 09:52:25;;;;;;;40.83;21.08;;;;;;;9.99;67.03;99210.28;5070640;28;20033;-76
2020/12/24 09:54:50;;;;;;;28.67;16.75;;;;;;;10.12;66.40;99200.91;5070437;28;20032;-75
2020/12/24 09:57:15;;;;;;;20.27;11.48;;;;;;;10.13;67.35;99183.81;5064682;28;20412;-73
2020/12/24 09:59:41;;;;;;;17.95;10.27;;;;;;;10.25;68.07;99191.53;5070190;28;20021;-77
2020/12/24 10:02:06;;;;;;;17.83;9.75;;;;;;;10.25;67.52;99179.00;5069300;28;20455;-73
2020/12/24 10:04:32;;;;;;;12.63;7.70;;;;;;;10.31;67.64;99189.66;5070704;28;20032;-76
2020/12/24 10:06:57;;;;;;;14.65;8.80;;;;;;;10.30;68.06;99175.50;5069071;28;20025;-77
2020/12/24 10:09:22;;;;;;;14.60;8.48;;;;;;;10.27;67.33;99169.91;5071428;28;20479;-77
2020/12/24 10:11:48;;;;;;;17.17;9.15;;;;;;;10.22;66.95;99173.38;5069171;28;20036;-82
2020/12/24 10:14:14;;;;;;;14.77;7.72;;;;;;;10.19;67.79;99174.72;5068296;28;20454;-76
2020/12/24 10:16:39;;;;;;;20.75;12.32;;;;;;;10.14;67.42;99173.91;5068220;28;20024;-76
2020/12/24 10:19:05;;;;;;;20.35;11.82;;;;;;;10.09;68.47;99167.53;5069794;28;20025;-77
2020/12/24 10:21:30;;;;;;;18.08;11.00;;;;;;;10.10;68.08;99154.94;5068755;28;20028;-78
2020/12/24 10:23:55;;;;;;;24.05;13.52;;;;;;;10.08;68.36;99152.56;5069133;28;20116;-78
2020/12/24 10:26:21;;;;;;;27.77;13.40;;;;;;;10.09;68.13;99151.50;5069601;28;20086;-78
2020/12/24 10:28:47;;;;;;;20.55;10.40;;;;;;;10.12;67.81;99155.50;5070896;28;20507;-78
2020/12/24 10:31:12;;;;;;;17.33;10.60;;;;;;;10.10;67.98;99152.28;5073317;28;20052;-79
2020/12/24 10:33:37;;;;;;;18.52;11.07;;;;;;;10.13;67.69;99137.56;5073378;28;20045;-77
2020/12/24 10:36:03;;;;;;;13.60;9.95;;;;;;;10.17;67.85;99138.66;5073394;28;20025;-78
2020/12/24 10:38:29;;;;;;;18.73;11.82;;;;;;;10.20;67.81;99141.56;5073299;28;20032;-78
2020/12/24 10:40:54;;;;;;;18.70;10.88;;;;;;;10.25;67.83;99144.25;5073352;28;20028;-78
2020/12/24 10:43:20;;;;;;;20.40;12.85;;;;;;;10.33;67.88;99134.06;5073513;28;20059;-77
2020/12/24 10:45:45;;;;;;;18.77;10.60;;;;;;;10.37;67.96;99135.94;5073158;28;20490;-77
2020/12/24 10:48:11;;;;;;;21.30;13.00;;;;;;;10.44;68.26;99124.97;5073162;28;20098;-77
2020/12/24 10:50:36;;;;;;;18.98;11.00;;;;;;;10.51;67.51;99128.16;5073262;28;20475;-78
2020/12/24 10:53:01;;;;;;;18.65;10.25;;;;;;;10.59;67.25;99126.78;5073075;28;20486;-78
2020/12/24 10:55:27;;;;;;;21.75;11.75;;;;;;;10.65;66.48;99123.00;5073174;28;20076;-77
2020/12/24 10:57:52;;;;;;;20.75;12.20;;;;;;;10.72;66.59;99118.16;5072901;28;20545;-78
2020/12/24 11:00:18;;;;;;;17.92;10.75;;;;;;;10.77;66.06;99103.16;5073061;28;20028;-78
2020/12/24 11:02:43;;;;;;;19.58;11.85;;;;;;;10.80;66.32;99099.94;5073104;28;20481;-77
2020/12/24 11:05:08;;;;;;;20.80;11.60;;;;;;;10.80;65.86;99095.41;5072631;28;20091;-76
2020/12/24 11:07:34;;;;;;;18.70;11.32;;;;;;;10.84;65.79;99096.44;5074282;28;20028;-78
2020/12/24 11:09:59;;;;;;;21.92;10.80;;;;;;;10.86;65.50;99080.09;5072705;28;20067;-76
2020/12/24 11:12:25;;;;;;;20.50;12.07;;;;;;;10.85;66.21;99078.50;5072901;28;20033;-77
2020/12/24 11:14:50;;;;;;;19.10;13.65;;;;;;;10.84;65.71;99072.34;5072824;28;20085;-77
2020/12/24 11:17:16;;;;;;;21.15;11.57;;;;;;;10.80;65.94;99075.84;5072488;28;20032;-77
2020/12/24 11:19:41;;;;;;;21.42;11.13;;;;;;;10.72;66.55;99056.63;5072634;28;20028;-76
2020/12/24 11:22:07;;;;;;;15.52;11.02;;;;;;;10.71;66.50;99056.91;5072427;28;20031;-76
2020/12/24 11:24:32;;;;;;;20.02;11.43;;;;;;;10.67;67.16;99047.84;5072585;28;20028;-76
2020/12/24 11:26:58;;;;;;;18.15;12.15;;;;;;;10.66;67.53;99046.25;5073938;28;20033;-78